createdAt,value
2023-03-06T00:03:28.051Z,100722.00
2023-03-06T00:08:34.487Z,100718.06
2023-03-06T00:13:36.150Z,100719.59
2023-03-06T00:18:44.024Z,100714.44
2023-03-06T00:23:45.750Z,100714.59
2023-03-06T00:28:47.424Z,100707.63
2023-03-06T00:33:51.738Z,100703.00
2023-03-06T00:38:53.579Z,100699.84
2023-03-06T00:43:55.469Z,100692.91
2023-03-06T00:48:57.179Z,100690.41
2023-03-06T00:53:58.959Z,100692.56
2023-03-06T00:59:03.037Z,100687.53
2023-03-06T01:04:05.291Z,100677.38
2023-03-06T01:09:09.554Z,100683.72
2023-03-06T01:14:11.229Z,100681.69
2023-03-06T01:19:15.311Z,100682.66
2023-03-06T01:24:17.045Z,100674.41
2023-03-06T01:29:18.741Z,100671.75
2023-03-06T01:34:20.481Z,100658.84
2023-03-06T01:39:22.164Z,100667.13
2023-03-06T01:44:23.984Z,100653.38
2023-03-06T01:49:29.470Z,100645.09
2023-03-06T01:54:34.719Z,100638.28
2023-03-06T01:59:37.804Z,100622.97
2023-03-06T02:04:40.443Z,100629.69
2023-03-06T02:09:46.956Z,100623.44
2023-03-06T02:14:48.913Z,100617.97
2023-03-06T02:20:21.099Z,100611.34
2023-03-06T02:25:43.724Z,100614.13
2023-03-06T02:30:48.323Z,100599.97
2023-03-06T02:35:58.491Z,100593.28
2023-03-06T02:41:04.777Z,100593.66
2023-03-06T02:46:09.564Z,100577.16
2023-03-06T02:51:11.325Z,100578.69
2023-03-06T02:56:13.089Z,100570.06
2023-03-06T03:01:17.450Z,100567.00
2023-03-06T03:06:19.658Z,100555.91
2023-03-06T03:11:24.253Z,100555.66
2023-03-06T03:16:31.445Z,100561.44
2023-03-06T03:21:34.008Z,100548.38
2023-03-06T03:26:38.001Z,100554.63
2023-03-06T03:31:47.549Z,100552.00
2023-03-06T03:36:52.007Z,100552.34
2023-03-06T03:41:53.782Z,100548.03
2023-03-06T03:46:55.638Z,100539.44
2023-03-06T03:52:00.760Z,100545.53
2023-03-06T03:57:11.301Z,100551.16
2023-03-06T04:02:21.792Z,100538.44
2023-03-06T04:07:34.935Z,100531.16
2023-03-06T04:12:37.312Z,100527.97
2023-03-06T04:17:42.411Z,100518.78
2023-03-06T04:22:51.927Z,100517.75
2023-03-06T04:27:53.694Z,100513.59
2023-03-06T04:32:58.162Z,100501.50
2023-03-06T04:38:00.227Z,100506.66
2023-03-06T04:43:05.728Z,100508.22
2023-03-06T04:48:09.741Z,100510.34
2023-03-06T04:53:16.966Z,100514.19
2023-03-06T04:58:21.728Z,100503.06
2023-03-06T05:03:23.381Z,100494.59
2023-03-06T05:08:29.960Z,100497.81
2023-03-06T05:13:31.660Z,100496.28
2023-03-06T05:18:36.330Z,100495.53
2023-03-06T05:23:41.780Z,100492.44
2023-03-06T05:28:43.590Z,100491.25
2023-03-06T05:33:45.530Z,100493.28
2023-03-06T05:38:50.299Z,100486.22
2023-03-06T05:43:54.052Z,100490.06
2023-03-06T05:48:57.405Z,100498.53
2023-03-06T05:54:01.244Z,100489.22
2023-03-06T05:59:05.393Z,100492.56
2023-03-06T06:04:07.045Z,100494.69
2023-03-06T06:09:13.789Z,100505.53
2023-03-06T06:14:17.964Z,100505.91
2023-03-06T06:19:20.492Z,100499.56
2023-03-06T06:24:26.147Z,100507.81
2023-03-06T06:29:30.667Z,100504.47
2023-03-06T06:34:32.426Z,100498.13
2023-03-06T06:39:36.723Z,100484.78
2023-03-06T06:44:38.791Z,100478.34
2023-03-06T06:49:42.815Z,100480.16
2023-03-06T06:54:47.173Z,100478.22
2023-03-06T06:59:53.365Z,100481.69
2023-03-06T07:05:04.087Z,100486.56
2023-03-06T07:10:11.812Z,100476.78
2023-03-06T07:15:16.826Z,100489.34
2023-03-06T07:20:19.956Z,100486.72
2023-03-06T07:25:22.361Z,100488.63
2023-03-06T07:30:28.600Z,100485.41
2023-03-06T07:35:32.665Z,100480.84
2023-03-06T07:40:38.416Z,100495.44
2023-03-06T07:45:40.065Z,100498.06
2023-03-06T07:50:44.386Z,100500.44
2023-03-06T07:55:46.119Z,100500.53
2023-03-06T08:00:52.694Z,100507.47
2023-03-06T08:06:05.807Z,100496.41
2023-03-06T08:11:12.036Z,100510.00
2023-03-06T08:16:13.830Z,100511.47
2023-03-06T08:21:23.606Z,100509.88
2023-03-06T08:26:27.882Z,100517.84
2023-03-06T08:31:36.407Z,100521.69
2023-03-06T08:36:42.716Z,100517.19
2023-03-06T08:41:45.090Z,100513.00
2023-03-06T08:46:46.919Z,100517.81
2023-03-06T08:51:48.633Z,100520.53
2023-03-06T08:56:53.873Z,100520.16
2023-03-06T09:01:55.703Z,100518.97
2023-03-06T09:07:11.457Z,100526.25
2023-03-06T09:12:13.177Z,100519.47
2023-03-06T09:17:15.029Z,100515.56
2023-03-06T09:22:21.522Z,100519.84
2023-03-06T09:27:23.369Z,100514.28
2023-03-06T09:32:25.179Z,100512.03
2023-03-06T09:37:27.087Z,100525.06
2023-03-06T09:42:29.183Z,100519.31
2023-03-06T09:47:40.401Z,100524.91
2023-03-06T09:53:35.907Z,100521.28
2023-03-06T09:58:52.521Z,100513.53
2023-03-06T10:04:10.058Z,100511.81
2023-03-06T10:09:38.206Z,100513.13
2023-03-06T10:14:54.451Z,100513.94
2023-03-06T10:19:56.281Z,100512.00
2023-03-06T10:25:11.126Z,100505.34
2023-03-06T10:30:34.903Z,100503.44
2023-03-06T10:35:51.144Z,100506.31
2023-03-06T10:41:08.149Z,100498.97
2023-03-06T10:46:12.815Z,100498.59
2023-03-06T10:51:24.214Z,100500.34
2023-03-06T10:56:35.578Z,100487.81
2023-03-06T11:01:37.560Z,100492.81
2023-03-06T11:06:39.810Z,100483.31
2023-03-06T11:11:41.683Z,100476.78
2023-03-06T11:16:53.021Z,100482.53
2023-03-06T11:22:06.862Z,100478.34
2023-03-06T11:27:34.607Z,100474.63
2023-03-06T11:32:45.381Z,100474.56
2023-03-06T11:38:44.988Z,100476.03
2023-03-06T11:43:55.261Z,100467.13
2023-03-06T11:49:24.833Z,100461.97
2023-03-06T11:54:28.941Z,100460.31
2023-03-06T11:59:42.138Z,100458.66
2023-03-06T12:05:06.878Z,100451.38
2023-03-06T12:10:33.445Z,100448.03
2023-03-06T12:16:08.723Z,100437.41
2023-03-06T12:21:25.794Z,100451.81
2023-03-06T12:27:07.032Z,100447.28
2023-03-06T12:32:17.728Z,100450.25
2023-03-06T12:37:31.393Z,100435.72
2023-03-06T12:43:04.256Z,100438.22
2023-03-06T12:48:19.303Z,100431.25
2023-03-06T12:53:28.507Z,100424.59
2023-03-06T12:58:34.569Z,100423.63
2023-03-06T13:03:49.850Z,100410.66
2023-03-06T13:09:14.448Z,100405.47
2023-03-06T13:14:42.270Z,100399.50
2023-03-06T13:20:20.374Z,100392.06
2023-03-06T13:25:30.673Z,100392.19
2023-03-06T13:30:38.486Z,100385.75
2023-03-06T13:35:42.990Z,100389.22
2023-03-06T13:40:45.038Z,100384.66
2023-03-06T13:45:47.986Z,100383.28
2023-03-06T13:50:49.805Z,100371.00
2023-03-06T13:56:21.157Z,100368.38
2023-03-06T14:01:34.806Z,100366.31
2023-03-06T14:06:39.338Z,100368.59
2023-03-06T14:11:46.400Z,100364.66
2023-03-06T14:16:51.285Z,100367.56
2023-03-06T14:21:56.640Z,100364.66
2023-03-06T14:26:58.387Z,100360.94
2023-03-06T14:32:01.544Z,100351.41
2023-03-06T14:37:05.623Z,100341.31
2023-03-06T14:42:19.101Z,100340.19
2023-03-06T14:47:23.350Z,100335.38
2023-03-06T14:52:27.452Z,100318.94
2023-03-06T14:57:29.302Z,100321.91
2023-03-06T15:02:33.006Z,100324.91
2023-03-06T15:07:35.282Z,100311.16
2023-03-06T15:12:38.663Z,100297.50
2023-03-06T15:17:50.191Z,100291.56
2023-03-06T15:22:51.958Z,100279.63
2023-03-06T15:28:15.491Z,100272.00
2023-03-06T15:33:22.839Z,100274.13
2023-03-06T15:38:29.872Z,100264.00
2023-03-06T15:43:39.332Z,100265.59
2023-03-06T15:48:59.790Z,100256.16
2023-03-06T15:54:12.332Z,100247.56
2023-03-06T15:59:26.051Z,100249.22
2023-03-06T16:04:27.966Z,100243.66
2023-03-06T16:09:29.699Z,100240.53
2023-03-06T16:14:36.614Z,100226.22
2023-03-06T16:19:39.014Z,100225.88
2023-03-06T16:24:41.776Z,100216.75
2023-03-06T16:29:43.925Z,100200.94
2023-03-06T16:34:46.203Z,100202.19
2023-03-06T16:39:52.715Z,100205.28
2023-03-06T16:44:55.800Z,100189.66
2023-03-06T16:50:01.900Z,100171.06
2023-03-06T16:55:06.078Z,100168.56
2023-03-06T17:00:08.630Z,100159.88
2023-03-06T17:05:11.461Z,100148.81
2023-03-06T17:10:20.100Z,100158.47
2023-03-06T17:15:22.564Z,100155.25
2023-03-06T17:20:26.464Z,100141.97
2023-03-06T17:25:30.719Z,100133.97
2023-03-06T17:30:35.185Z,100141.38
2023-03-06T17:35:37.168Z,100122.47
2023-03-06T17:40:39.061Z,100113.44
2023-03-06T17:45:40.809Z,100104.97
2023-03-06T17:50:53.267Z,100104.44
2023-03-06T17:55:58.484Z,100102.94
2023-03-06T18:01:30.229Z,100092.28
2023-03-06T18:06:33.595Z,100092.75
2023-03-06T18:11:35.344Z,100082.84
2023-03-06T18:16:40.586Z,100080.75
2023-03-06T18:21:42.422Z,100068.34
2023-03-06T18:26:44.199Z,100048.19
2023-03-06T18:31:50.359Z,100047.34
2023-03-06T18:36:52.912Z,100035.25
2023-03-06T18:41:55.891Z,100016.94
2023-03-06T18:46:57.650Z,99996.59
2023-03-06T18:51:59.551Z,99996.75
2023-03-06T18:57:01.303Z,99990.78
2023-03-06T19:02:05.119Z,99988.16
2023-03-06T19:07:09.372Z,99977.56
2023-03-06T19:12:14.173Z,99967.16
2023-03-06T19:17:15.894Z,99955.75
2023-03-06T19:22:17.699Z,99953.44
2023-03-06T19:27:19.486Z,99948.16
2023-03-06T19:32:22.280Z,99935.59
2023-03-06T19:37:25.025Z,99923.94
2023-03-06T19:42:28.158Z,99918.84
2023-03-06T19:47:32.018Z,99903.28
2023-03-06T19:52:39.053Z,99899.66
2023-03-06T19:57:40.832Z,99881.78
2023-03-06T20:02:44.834Z,99871.97
2023-03-06T20:07:46.815Z,99869.56
2023-03-06T20:12:48.691Z,99841.84
2023-03-06T20:17:50.400Z,99850.78
2023-03-06T20:22:52.383Z,99835.69
2023-03-06T20:27:54.141Z,99839.84
2023-03-06T20:32:58.683Z,99818.38
2023-03-06T20:38:02.655Z,99796.81
2023-03-06T20:43:04.646Z,99781.25
2023-03-06T20:48:06.541Z,99783.50
2023-03-06T20:53:11.371Z,99765.88
2023-03-06T20:58:13.279Z,99749.91
2023-03-06T21:03:17.576Z,99750.50
2023-03-06T21:08:19.332Z,99738.88
2023-03-06T21:13:21.180Z,99727.69
2023-03-06T21:18:25.540Z,99721.56
2023-03-06T21:23:27.666Z,99698.53
2023-03-06T21:28:32.083Z,99685.50
2023-03-06T21:33:34.107Z,99686.16
2023-03-06T21:38:36.129Z,99666.22
2023-03-06T21:43:40.590Z,99656.66
2023-03-06T21:48:44.970Z,99649.88
2023-03-06T21:53:50.136Z,99638.66
2023-03-06T21:58:51.937Z,99629.09
2023-03-06T22:03:53.711Z,99612.59
2023-03-06T22:08:56.269Z,99613.72
2023-03-06T22:13:58.145Z,99596.28
2023-03-06T22:18:59.895Z,99593.63
2023-03-06T22:24:01.632Z,99573.66
2023-03-06T22:29:03.337Z,99571.56
2023-03-06T22:34:07.275Z,99565.31
2023-03-06T22:39:14.677Z,99549.34
2023-03-06T22:44:18.381Z,99528.09
2023-03-06T22:49:20.186Z,99529.59
2023-03-06T22:54:26.754Z,99519.72
2023-03-06T22:59:33.153Z,99509.03
2023-03-06T23:04:34.871Z,99511.66
2023-03-06T23:09:41.216Z,99499.31
2023-03-06T23:15:01.609Z,99485.16
2023-03-06T23:20:22.256Z,99472.59
2023-03-06T23:25:43.094Z,99469.00
2023-03-06T23:30:44.980Z,99459.81
2023-03-06T23:35:46.754Z,99451.56
2023-03-06T23:40:51.573Z,99457.19
2023-03-06T23:45:56.480Z,99445.31
2023-03-06T23:51:00.628Z,99441.25
2023-03-06T23:56:05.162Z,99439.13
